sensor_id;sensor_type;location;lat;lon;timestamp;P1;durP1;ratioP1;P2;durP2;ratioP2
18789;SDS011;9523;42.650;23.386;2022-12-11T00:01:09;17.33;;;9.73;;
18789;SDS011;9523;42.650;23.386;2022-12-11T00:03:36;15.03;;;9.27;;
18789;SDS011;9523;42.650;23.386;2022-12-11T00:06:04;15.10;;;9.20;;
18789;SDS011;9523;42.650;23.386;2022-12-11T00:08:33;13.97;;;9.43;;
18789;SDS011;9523;42.650;23.386;2022-12-11T00:11:00;15.57;;;10.70;;
18789;SDS011;9523;42.650;23.386;2022-12-11T00:13:29;17.03;;;10.17;;
18789;SDS011;9523;42.650;23.386;2022-12-11T00:15:56;16.30;;;10.07;;
18789;SDS011;9523;42.650;23.386;2022-12-11T00:18:23;16.20;;;10.33;;
18789;SDS011;9523;42.650;23.386;2022-12-11T00:20:50;17.90;;;10.40;;
18789;SDS011;9523;42.650;23.386;2022-12-11T00:23:17;15.13;;;9.70;;
18789;SDS011;9523;42.650;23.386;2022-12-11T00:25:45;20.97;;;11.10;;
18789;SDS011;9523;42.650;23.386;2022-12-11T00:28:14;18.10;;;11.17;;
18789;SDS011;9523;42.650;23.386;2022-12-11T00:30:44;18.73;;;10.63;;
18789;SDS011;9523;42.650;23.386;2022-12-11T00:33:11;17.83;;;10.70;;
18789;SDS011;9523;42.650;23.386;2022-12-11T00:35:40;15.13;;;10.13;;
18789;SDS011;9523;42.650;23.386;2022-12-11T00:38:07;13.30;;;8.70;;
18789;SDS011;9523;42.650;23.386;2022-12-11T00:40:39;19.63;;;11.23;;
18789;SDS011;9523;42.650;23.386;2022-12-11T00:43:06;20.93;;;9.90;;
18789;SDS011;9523;42.650;23.386;2022-12-11T00:45:34;20.43;;;11.77;;
18789;SDS011;9523;42.650;23.386;2022-12-11T00:48:03;24.90;;;13.37;;
18789;SDS011;9523;42.650;23.386;2022-12-11T00:50:30;20.77;;;12.73;;
18789;SDS011;9523;42.650;23.386;2022-12-11T00:52:59;21.90;;;13.30;;
18789;SDS011;9523;42.650;23.386;2022-12-11T00:55:26;25.77;;;11.83;;
18789;SDS011;9523;42.650;23.386;2022-12-11T00:57:53;19.30;;;11.23;;
18789;SDS011;9523;42.650;23.386;2022-12-11T01:00:20;20.90;;;12.60;;
18789;SDS011;9523;42.650;23.386;2022-12-11T01:02:48;20.13;;;12.23;;
18789;SDS011;9523;42.650;23.386;2022-12-11T01:05:16;18.93;;;11.23;;
18789;SDS011;9523;42.650;23.386;2022-12-11T01:07:43;18.27;;;11.63;;
18789;SDS011;9523;42.650;23.386;2022-12-11T01:10:10;16.50;;;10.23;;
18789;SDS011;9523;42.650;23.386;2022-12-11T01:12:50;16.93;;;10.83;;
18789;SDS011;9523;42.650;23.386;2022-12-11T01:15:17;18.67;;;11.07;;
18789;SDS011;9523;42.650;23.386;2022-12-11T01:17:44;19.40;;;11.23;;
18789;SDS011;9523;42.650;23.386;2022-12-11T01:20:11;21.37;;;11.40;;
18789;SDS011;9523;42.650;23.386;2022-12-11T01:22:39;19.70;;;12.00;;
18789;SDS011;9523;42.650;23.386;2022-12-11T01:25:07;16.90;;;10.60;;
18789;SDS011;9523;42.650;23.386;2022-12-11T01:27:35;20.73;;;11.57;;
18789;SDS011;9523;42.650;23.386;2022-12-11T01:30:02;20.83;;;12.77;;
18789;SDS011;9523;42.650;23.386;2022-12-11T01:32:30;21.63;;;12.27;;
18789;SDS011;9523;42.650;23.386;2022-12-11T01:34:57;20.50;;;12.70;;
18789;SDS011;9523;42.650;23.386;2022-12-11T01:37:24;19.17;;;12.03;;
18789;SDS011;9523;42.650;23.386;2022-12-11T01:39:52;18.17;;;11.67;;
18789;SDS011;9523;42.650;23.386;2022-12-11T01:42:19;17.10;;;10.03;;
18789;SDS011;9523;42.650;23.386;2022-12-11T01:47:51;17.67;;;8.47;;
18789;SDS011;9523;42.650;23.386;2022-12-11T01:50:21;16.83;;;9.00;;
18789;SDS011;9523;42.650;23.386;2022-12-11T01:52:48;16.10;;;9.00;;
18789;SDS011;9523;42.650;23.386;2022-12-11T01:55:17;15.07;;;9.30;;
18789;SDS011;9523;42.650;23.386;2022-12-11T01:57:46;16.77;;;9.63;;
18789;SDS011;9523;42.650;23.386;2022-12-11T02:00:16;17.90;;;10.20;;
18789;SDS011;9523;42.650;23.386;2022-12-11T02:02:43;15.80;;;9.83;;
18789;SDS011;9523;42.650;23.386;2022-12-11T02:05:10;16.20;;;10.90;;
18789;SDS011;9523;42.650;23.386;2022-12-11T02:07:39;15.87;;;10.00;;
18789;SDS011;9523;42.650;23.386;2022-12-11T02:10:09;19.03;;;10.60;;
18789;SDS011;9523;42.650;23.386;2022-12-11T02:12:40;18.47;;;10.27;;
18789;SDS011;9523;42.650;23.386;2022-12-11T02:15:16;18.50;;;11.10;;
18789;SDS011;9523;42.650;23.386;2022-12-11T02:17:52;20.33;;;9.57;;
18789;SDS011;9523;42.650;23.386;2022-12-11T02:20:25;14.57;;;9.13;;
18789;SDS011;9523;42.650;23.386;2022-12-11T02:23:12;16.47;;;9.03;;
18789;SDS011;9523;42.650;23.386;2022-12-11T02:25:55;13.43;;;7.77;;
18789;SDS011;9523;42.650;23.386;2022-12-11T02:28:33;13.93;;;7.87;;
18789;SDS011;9523;42.650;23.386;2022-12-11T02:31:04;8.67;;;5.63;;
18789;SDS011;9523;42.650;23.386;2022-12-11T02:33:39;8.30;;;4.37;;
18789;SDS011;9523;42.650;23.386;2022-12-11T02:36:09;8.13;;;4.33;;
18789;SDS011;9523;42.650;23.386;2022-12-11T02:38:40;8.17;;;4.43;;
18789;SDS011;9523;42.650;23.386;2022-12-11T02:41:11;8.83;;;5.00;;
18789;SDS011;9523;42.650;23.386;2022-12-11T02:43:39;7.07;;;4.63;;
18789;SDS011;9523;42.650;23.386;2022-12-11T02:46:07;8.00;;;4.60;;
18789;SDS011;9523;42.650;23.386;2022-12-11T02:48:35;77.27;;;34.77;;
18789;SDS011;9523;42.650;23.386;2022-12-11T02:51:04;29.77;;;12.97;;
18789;SDS011;9523;42.650;23.386;2022-12-11T02:53:34;28.03;;;14.40;;
18789;SDS011;9523;42.650;23.386;2022-12-11T02:56:05;10.43;;;5.00;;
18789;SDS011;9523;42.650;23.386;2022-12-11T02:58:35;6.60;;;3.57;;
18789;SDS011;9523;42.650;23.386;2022-12-11T03:01:09;3.00;;;1.90;;
18789;SDS011;9523;42.650;23.386;2022-12-11T03:03:39;6.37;;;3.10;;
18789;SDS011;9523;42.650;23.386;2022-12-11T03:06:06;4.13;;;2.70;;
18789;SDS011;9523;42.650;23.386;2022-12-11T03:08:38;5.20;;;3.00;;
18789;SDS011;9523;42.650;23.386;2022-12-11T03:11:08;4.67;;;2.57;;
18789;SDS011;9523;42.650;23.386;2022-12-11T03:13:39;3.60;;;2.27;;
18789;SDS011;9523;42.650;23.386;2022-12-11T03:16:09;3.93;;;2.10;;
18789;SDS011;9523;42.650;23.386;2022-12-11T03:18:42;4.30;;;1.90;;
18789;SDS011;9523;42.650;23.386;2022-12-11T03:21:16;5.57;;;2.10;;
18789;SDS011;9523;42.650;23.386;2022-12-11T03:23:51;3.30;;;2.10;;
18789;SDS011;9523;42.650;23.386;2022-12-11T03:26:27;3.00;;;1.90;;
18789;SDS011;9523;42.650;23.386;2022-12-11T03:28:59;2.00;;;1.67;;
18789;SDS011;9523;42.650;23.386;2022-12-11T03:31:33;2.90;;;1.40;;
18789;SDS011;9523;42.650;23.386;2022-12-11T03:34:07;2.40;;;1.60;;
18789;SDS011;9523;42.650;23.386;2022-12-11T03:36:41;2.80;;;1.70;;
18789;SDS011;9523;42.650;23.386;2022-12-11T03:39:11;1.83;;;1.30;;
18789;SDS011;9523;42.650;23.386;2022-12-11T03:41:42;3.30;;;1.20;;
18789;SDS011;9523;42.650;23.386;2022-12-11T03:44:12;1.57;;;1.20;;
18789;SDS011;9523;42.650;23.386;2022-12-11T03:46:39;1.57;;;1.17;;
18789;SDS011;9523;42.650;23.386;2022-12-11T03:49:10;1.40;;;0.90;;
18789;SDS011;9523;42.650;23.386;2022-12-11T03:51:42;1.03;;;1.03;;
18789;SDS011;9523;42.650;23.386;2022-12-11T03:54:11;1.10;;;1.00;;
18789;SDS011;9523;42.650;23.386;2022-12-11T03:56:39;3.23;;;1.10;;
18789;SDS011;9523;42.650;23.386;2022-12-11T03:59:07;3.70;;;1.40;;
18789;SDS011;9523;42.650;23.386;2022-12-11T04:01:36;1.73;;;0.80;;
18789;SDS011;9523;42.650;23.386;2022-12-11T04:04:03;1.13;;;1.00;;
18789;SDS011;9523;42.650;23.386;2022-12-11T04:06:30;1.13;;;0.83;;
18789;SDS011;9523;42.650;23.386;2022-12-11T04:08:57;1.43;;;0.87;;
18789;SDS011;9523;42.650;23.386;2022-12-11T04:11:23;1.63;;;1.00;;
18789;SDS011;9523;42.650;23.386;2022-12-11T04:13:59;2.60;;;0.77;;
18789;SDS011;9523;42.650;23.386;2022-12-11T04:16:45;1.27;;;0.50;;
18789;SDS011;9523;42.650;23.386;2022-12-11T04:19:13;1.30;;;1.00;;
18789;SDS011;9523;42.650;23.386;2022-12-11T04:21:57;1.20;;;0.93;;
18789;SDS011;9523;42.650;23.386;2022-12-11T04:24:53;2.23;;;0.90;;
18789;SDS011;9523;42.650;23.386;2022-12-11T04:27:20;1.00;;;1.00;;
18789;SDS011;9523;42.650;23.386;2022-12-11T04:30:05;2.53;;;1.20;;
18789;SDS011;9523;42.650;23.386;2022-12-11T04:32:36;2.37;;;1.20;;
18789;SDS011;9523;42.650;23.386;2022-12-11T04:35:05;2.90;;;1.13;;
18789;SDS011;9523;42.650;23.386;2022-12-11T04:37:32;5.70;;;1.13;;
18789;SDS011;9523;42.650;23.386;2022-12-11T04:39:59;2.63;;;0.93;;
18789;SDS011;9523;42.650;23.386;2022-12-11T04:42:26;1.57;;;1.07;;
18789;SDS011;9523;42.650;23.386;2022-12-11T04:44:53;1.40;;;1.20;;
18789;SDS011;9523;42.650;23.386;2022-12-11T04:47:20;2.60;;;1.10;;
18789;SDS011;9523;42.650;23.386;2022-12-11T04:49:48;2.23;;;0.80;;
18789;SDS011;9523;42.650;23.386;2022-12-11T04:52:15;2.17;;;0.80;;
18789;SDS011;9523;42.650;23.386;2022-12-11T04:54:42;3.43;;;0.80;;
18789;SDS011;9523;42.650;23.386;2022-12-11T04:57:09;1.27;;;0.80;;
18789;SDS011;9523;42.650;23.386;2022-12-11T04:59:36;2.33;;;0.90;;
18789;SDS011;9523;42.650;23.386;2022-12-11T05:02:03;1.03;;;0.73;;
18789;SDS011;9523;42.650;23.386;2022-12-11T05:04:30;1.40;;;0.90;;
18789;SDS011;9523;42.650;23.386;2022-12-11T05:06:59;1.00;;;0.60;;
18789;SDS011;9523;42.650;23.386;2022-12-11T05:09:26;1.73;;;0.80;;
18789;SDS011;9523;42.650;23.386;2022-12-11T05:11:53;1.60;;;0.60;;
18789;SDS011;9523;42.650;23.386;2022-12-11T05:14:20;0.90;;;0.70;;
18789;SDS011;9523;42.650;23.386;2022-12-11T05:16:47;0.60;;;0.60;;
18789;SDS011;9523;42.650;23.386;2022-12-11T05:19:14;1.53;;;0.77;;
18789;SDS011;9523;42.650;23.386;2022-12-11T05:21:41;0.40;;;0.40;;
18789;SDS011;9523;42.650;23.386;2022-12-11T05:24:09;0.50;;;0.40;;
18789;SDS011;9523;42.650;23.386;2022-12-11T05:26:36;2.63;;;0.50;;
18789;SDS011;9523;42.650;23.386;2022-12-11T05:29:03;1.00;;;0.60;;
18789;SDS011;9523;42.650;23.386;2022-12-11T05:31:29;1.97;;;0.60;;
18789;SDS011;9523;42.650;23.386;2022-12-11T05:33:56;0.57;;;0.50;;
18789;SDS011;9523;42.650;23.386;2022-12-11T05:36:24;1.20;;;0.50;;
18789;SDS011;9523;42.650;23.386;2022-12-11T05:38:52;2.50;;;0.70;;
18789;SDS011;9523;42.650;23.386;2022-12-11T05:41:22;0.70;;;0.30;;
18789;SDS011;9523;42.650;23.386;2022-12-11T05:43:50;1.40;;;0.60;;
18789;SDS011;9523;42.650;23.386;2022-12-11T05:46:18;5.53;;;0.80;;
18789;SDS011;9523;42.650;23.386;2022-12-11T05:48:47;0.60;;;0.60;;
18789;SDS011;9523;42.650;23.386;2022-12-11T05:51:16;1.03;;;0.40;;
18789;SDS011;9523;42.650;23.386;2022-12-11T05:53:44;2.13;;;0.53;;
18789;SDS011;9523;42.650;23.386;2022-12-11T05:56:13;1.70;;;0.67;;
18789;SDS011;9523;42.650;23.386;2022-12-11T05:58:43;2.77;;;0.40;;
18789;SDS011;9523;42.650;23.386;2022-12-11T06:01:11;2.30;;;0.70;;
18789;SDS011;9523;42.650;23.386;2022-12-11T06:03:39;2.10;;;0.80;;
18789;SDS011;9523;42.650;23.386;2022-12-11T06:06:06;1.83;;;1.43;;
18789;SDS011;9523;42.650;23.386;2022-12-11T06:08:33;0.50;;;0.50;;
18789;SDS011;9523;42.650;23.386;2022-12-11T06:11:00;4.63;;;1.97;;
18789;SDS011;9523;42.650;23.386;2022-12-11T06:13:28;7.43;;;3.60;;
18789;SDS011;9523;42.650;23.386;2022-12-11T06:15:58;1.30;;;1.00;;
18789;SDS011;9523;42.650;23.386;2022-12-11T06:18:25;1.47;;;1.17;;
18789;SDS011;9523;42.650;23.386;2022-12-11T06:20:52;1.23;;;0.70;;
18789;SDS011;9523;42.650;23.386;2022-12-11T06:23:19;1.37;;;0.70;;
18789;SDS011;9523;42.650;23.386;2022-12-11T06:25:46;3.87;;;2.43;;
18789;SDS011;9523;42.650;23.386;2022-12-11T06:28:12;2.07;;;0.80;;
18789;SDS011;9523;42.650;23.386;2022-12-11T06:30:40;2.13;;;0.70;;
18789;SDS011;9523;42.650;23.386;2022-12-11T06:33:08;0.97;;;0.90;;
18789;SDS011;9523;42.650;23.386;2022-12-11T06:35:34;1.87;;;0.87;;
18789;SDS011;9523;42.650;23.386;2022-12-11T06:38:01;1.67;;;0.97;;
18789;SDS011;9523;42.650;23.386;2022-12-11T06:40:28;1.80;;;0.57;;
18789;SDS011;9523;42.650;23.386;2022-12-11T06:42:58;2.23;;;1.30;;
18789;SDS011;9523;42.650;23.386;2022-12-11T06:45:24;1.17;;;0.60;;
18789;SDS011;9523;42.650;23.386;2022-12-11T06:47:51;1.27;;;0.80;;
18789;SDS011;9523;42.650;23.386;2022-12-11T06:50:20;0.87;;;0.40;;
18789;SDS011;9523;42.650;23.386;2022-12-11T06:52:46;0.70;;;0.60;;
18789;SDS011;9523;42.650;23.386;2022-12-11T06:55:14;0.40;;;0.40;;
18789;SDS011;9523;42.650;23.386;2022-12-11T06:57:40;2.13;;;0.50;;
18789;SDS011;9523;42.650;23.386;2022-12-11T07:00:08;0.83;;;0.60;;
18789;SDS011;9523;42.650;23.386;2022-12-11T07:02:35;2.60;;;0.73;;
18789;SDS011;9523;42.650;23.386;2022-12-11T07:05:02;1.70;;;0.70;;
18789;SDS011;9523;42.650;23.386;2022-12-11T07:07:31;0.97;;;0.60;;
18789;SDS011;9523;42.650;23.386;2022-12-11T07:09:58;1.40;;;0.80;;
18789;SDS011;9523;42.650;23.386;2022-12-11T07:12:26;1.23;;;0.90;;
18789;SDS011;9523;42.650;23.386;2022-12-11T07:14:53;0.70;;;0.60;;
18789;SDS011;9523;42.650;23.386;2022-12-11T07:17:19;1.67;;;0.70;;
18789;SDS011;9523;42.650;23.386;2022-12-11T07:19:46;0.90;;;0.50;;
18789;SDS011;9523;42.650;23.386;2022-12-11T07:22:13;1.77;;;0.80;;
18789;SDS011;9523;42.650;23.386;2022-12-11T07:24:41;0.60;;;0.40;;
18789;SDS011;9523;42.650;23.386;2022-12-11T07:27:08;0.80;;;0.60;;
18789;SDS011;9523;42.650;23.386;2022-12-11T07:29:35;0.97;;;0.40;;
18789;SDS011;9523;42.650;23.386;2022-12-11T07:32:02;2.37;;;0.80;;
18789;SDS011;9523;42.650;23.386;2022-12-11T07:34:29;1.83;;;0.70;;
18789;SDS011;9523;42.650;23.386;2022-12-11T07:36:56;2.90;;;1.03;;
18789;SDS011;9523;42.650;23.386;2022-12-11T07:39:23;1.73;;;0.60;;
18789;SDS011;9523;42.650;23.386;2022-12-11T07:41:51;1.13;;;0.60;;
18789;SDS011;9523;42.650;23.386;2022-12-11T07:44:18;2.33;;;1.00;;
18789;SDS011;9523;42.650;23.386;2022-12-11T07:46:45;1.43;;;0.90;;
18789;SDS011;9523;42.650;23.386;2022-12-11T07:49:12;1.77;;;0.77;;
18789;SDS011;9523;42.650;23.386;2022-12-11T07:51:39;1.60;;;1.00;;
18789;SDS011;9523;42.650;23.386;2022-12-11T07:54:09;2.17;;;1.63;;
18789;SDS011;9523;42.650;23.386;2022-12-11T07:56:40;1.70;;;1.00;;
18789;SDS011;9523;42.650;23.386;2022-12-11T07:59:09;1.70;;;1.20;;
18789;SDS011;9523;42.650;23.386;2022-12-11T08:01:36;3.30;;;1.20;;
18789;SDS011;9523;42.650;23.386;2022-12-11T08:04:04;1.97;;;1.40;;
18789;SDS011;9523;42.650;23.386;2022-12-11T08:06:32;4.67;;;1.63;;
18789;SDS011;9523;42.650;23.386;2022-12-11T08:09:01;3.37;;;1.80;;
18789;SDS011;9523;42.650;23.386;2022-12-11T08:11:30;0.73;;;0.70;;
18789;SDS011;9523;42.650;23.386;2022-12-11T08:13:57;1.63;;;0.73;;
18789;SDS011;9523;42.650;23.386;2022-12-11T08:16:26;3.43;;;1.10;;
18789;SDS011;9523;42.650;23.386;2022-12-11T08:18:52;3.40;;;0.87;;
18789;SDS011;9523;42.650;23.386;2022-12-11T08:21:20;2.03;;;0.90;;
18789;SDS011;9523;42.650;23.386;2022-12-11T08:23:49;0.70;;;0.70;;
18789;SDS011;9523;42.650;23.386;2022-12-11T08:26:18;1.83;;;0.70;;
18789;SDS011;9523;42.650;23.386;2022-12-11T08:28:48;0.73;;;0.70;;
18789;SDS011;9523;42.650;23.386;2022-12-11T08:31:16;3.30;;;0.80;;
18789;SDS011;9523;42.650;23.386;2022-12-11T08:33:45;1.10;;;0.90;;
18789;SDS011;9523;42.650;23.386;2022-12-11T08:36:13;1.53;;;0.90;;
18789;SDS011;9523;42.650;23.386;2022-12-11T08:38:41;0.73;;;0.70;;
18789;SDS011;9523;42.650;23.386;2022-12-11T08:41:09;1.50;;;0.70;;
18789;SDS011;9523;42.650;23.386;2022-12-11T08:43:37;1.07;;;0.90;;
18789;SDS011;9523;42.650;23.386;2022-12-11T08:46:04;0.70;;;0.70;;
18789;SDS011;9523;42.650;23.386;2022-12-11T08:48:32;0.50;;;0.50;;
18789;SDS011;9523;42.650;23.386;2022-12-11T08:51:01;1.97;;;0.60;;
18789;SDS011;9523;42.650;23.386;2022-12-11T08:53:29;2.90;;;0.80;;
18789;SDS011;9523;42.650;23.386;2022-12-11T08:56:01;1.80;;;1.00;;
18789;SDS011;9523;42.650;23.386;2022-12-11T08:58:28;0.77;;;0.60;;
18789;SDS011;9523;42.650;23.386;2022-12-11T09:00:56;4.30;;;1.00;;
18789;SDS011;9523;42.650;23.386;2022-12-11T09:03:23;2.43;;;1.10;;
18789;SDS011;9523;42.650;23.386;2022-12-11T09:05:50;1.73;;;0.90;;
18789;SDS011;9523;42.650;23.386;2022-12-11T09:08:19;1.90;;;1.10;;
18789;SDS011;9523;42.650;23.386;2022-12-11T09:10:45;2.73;;;1.10;;
18789;SDS011;9523;42.650;23.386;2022-12-11T09:13:13;1.93;;;0.80;;
18789;SDS011;9523;42.650;23.386;2022-12-11T09:15:40;0.80;;;0.80;;
18789;SDS011;9523;42.650;23.386;2022-12-11T09:18:07;1.00;;;0.83;;
18789;SDS011;9523;42.650;23.386;2022-12-11T09:20:34;2.27;;;1.20;;
18789;SDS011;9523;42.650;23.386;2022-12-11T09:23:01;2.27;;;1.30;;
18789;SDS011;9523;42.650;23.386;2022-12-11T09:25:30;2.23;;;1.40;;
18789;SDS011;9523;42.650;23.386;2022-12-11T09:27:56;1.80;;;1.30;;
18789;SDS011;9523;42.650;23.386;2022-12-11T09:30:23;2.70;;;1.20;;
18789;SDS011;9523;42.650;23.386;2022-12-11T09:32:50;3.33;;;1.30;;
18789;SDS011;9523;42.650;23.386;2022-12-11T09:35:17;1.93;;;1.50;;
18789;SDS011;9523;42.650;23.386;2022-12-11T09:37:44;2.80;;;1.27;;
18789;SDS011;9523;42.650;23.386;2022-12-11T09:40:11;3.57;;;1.70;;
18789;SDS011;9523;42.650;23.386;2022-12-11T09:42:45;2.30;;;1.00;;
18789;SDS011;9523;42.650;23.386;2022-12-11T09:45:16;2.23;;;1.20;;
18789;SDS011;9523;42.650;23.386;2022-12-11T09:47:44;1.20;;;0.80;;
18789;SDS011;9523;42.650;23.386;2022-12-11T09:50:14;2.00;;;1.10;;
18789;SDS011;9523;42.650;23.386;2022-12-11T09:52:47;1.23;;;0.90;;
18789;SDS011;9523;42.650;23.386;2022-12-11T09:55:27;1.43;;;1.00;;
18789;SDS011;9523;42.650;23.386;2022-12-11T09:58:02;1.67;;;1.00;;
18789;SDS011;9523;42.650;23.386;2022-12-11T10:00:36;2.07;;;0.80;;
18789;SDS011;9523;42.650;23.386;2022-12-11T10:05:57;1.43;;;1.00;;
18789;SDS011;9523;42.650;23.386;2022-12-11T10:08:34;2.03;;;1.20;;
18789;SDS011;9523;42.650;23.386;2022-12-11T10:11:17;1.40;;;1.27;;
18789;SDS011;9523;42.650;23.386;2022-12-11T10:14:01;1.83;;;0.93;;
18789;SDS011;9523;42.650;23.386;2022-12-11T10:16:38;1.77;;;1.03;;
18789;SDS011;9523;42.650;23.386;2022-12-11T10:19:10;1.40;;;1.10;;
18789;SDS011;9523;42.650;23.386;2022-12-11T10:21:42;1.60;;;1.10;;
18789;SDS011;9523;42.650;23.386;2022-12-11T10:24:10;1.20;;;1.10;;
18789;SDS011;9523;42.650;23.386;2022-12-11T10:26:43;1.70;;;1.40;;
18789;SDS011;9523;42.650;23.386;2022-12-11T10:29:14;3.30;;;1.40;;
18789;SDS011;9523;42.650;23.386;2022-12-11T10:31:43;1.83;;;1.23;;
18789;SDS011;9523;42.650;23.386;2022-12-11T10:34:17;2.90;;;1.40;;
18789;SDS011;9523;42.650;23.386;2022-12-11T10:36:51;1.73;;;1.50;;
18789;SDS011;9523;42.650;23.386;2022-12-11T10:39:20;1.53;;;1.30;;
18789;SDS011;9523;42.650;23.386;2022-12-11T10:41:48;1.77;;;1.43;;
18789;SDS011;9523;42.650;23.386;2022-12-11T10:44:18;2.87;;;1.80;;
18789;SDS011;9523;42.650;23.386;2022-12-11T10:47:00;3.20;;;1.80;;
18789;SDS011;9523;42.650;23.386;2022-12-11T10:49:30;2.33;;;1.30;;
18789;SDS011;9523;42.650;23.386;2022-12-11T10:51:58;1.83;;;1.43;;
18789;SDS011;9523;42.650;23.386;2022-12-11T10:54:31;2.00;;;1.60;;
18789;SDS011;9523;42.650;23.386;2022-12-11T10:57:02;3.33;;;1.80;;
18789;SDS011;9523;42.650;23.386;2022-12-11T10:59:34;2.20;;;1.60;;
18789;SDS011;9523;42.650;23.386;2022-12-11T11:02:04;2.37;;;1.40;;
18789;SDS011;9523;42.650;23.386;2022-12-11T11:04:42;1.73;;;1.60;;
18789;SDS011;9523;42.650;23.386;2022-12-11T11:07:11;3.70;;;1.70;;
18789;SDS011;9523;42.650;23.386;2022-12-11T11:09:40;2.73;;;1.93;;
18789;SDS011;9523;42.650;23.386;2022-12-11T11:15:01;3.60;;;2.57;;
18789;SDS011;9523;42.650;23.386;2022-12-11T11:17:30;2.40;;;1.27;;
18789;SDS011;9523;42.650;23.386;2022-12-11T11:19:59;1.97;;;1.40;;
18789;SDS011;9523;42.650;23.386;2022-12-11T11:22:32;1.07;;;0.90;;
18789;SDS011;9523;42.650;23.386;2022-12-11T11:25:02;1.10;;;1.00;;
18789;SDS011;9523;42.650;23.386;2022-12-11T11:27:30;1.50;;;1.40;;
18789;SDS011;9523;42.650;23.386;2022-12-11T11:30:04;1.30;;;1.10;;
18789;SDS011;9523;42.650;23.386;2022-12-11T11:32:35;2.13;;;1.87;;
18789;SDS011;9523;42.650;23.386;2022-12-11T11:35:05;2.03;;;1.70;;
18789;SDS011;9523;42.650;23.386;2022-12-11T11:37:44;1.57;;;1.47;;
18789;SDS011;9523;42.650;23.386;2022-12-11T11:40:13;2.13;;;1.63;;
18789;SDS011;9523;42.650;23.386;2022-12-11T11:42:46;1.40;;;1.30;;
18789;SDS011;9523;42.650;23.386;2022-12-11T11:45:23;1.97;;;1.53;;
18789;SDS011;9523;42.650;23.386;2022-12-11T11:48:01;2.23;;;1.47;;
18789;SDS011;9523;42.650;23.386;2022-12-11T11:50:36;3.43;;;1.93;;
18789;SDS011;9523;42.650;23.386;2022-12-11T11:53:16;2.70;;;1.87;;
18789;SDS011;9523;42.650;23.386;2022-12-11T11:55:48;2.03;;;1.27;;
18789;SDS011;9523;42.650;23.386;2022-12-11T11:58:24;1.90;;;1.30;;
18789;SDS011;9523;42.650;23.386;2022-12-11T12:00:58;3.37;;;2.03;;
18789;SDS011;9523;42.650;23.386;2022-12-11T12:03:24;3.37;;;1.77;;
18789;SDS011;9523;42.650;23.386;2022-12-11T12:05:54;2.40;;;1.33;;
18789;SDS011;9523;42.650;23.386;2022-12-11T12:08:36;1.90;;;1.30;;
18789;SDS011;9523;42.650;23.386;2022-12-11T12:11:12;2.13;;;1.50;;
18789;SDS011;9523;42.650;23.386;2022-12-11T12:13:48;2.37;;;1.60;;
18789;SDS011;9523;42.650;23.386;2022-12-11T12:16:24;5.13;;;2.43;;
18789;SDS011;9523;42.650;23.386;2022-12-11T12:19:00;2.03;;;1.40;;
18789;SDS011;9523;42.650;23.386;2022-12-11T12:21:36;2.97;;;2.20;;
18789;SDS011;9523;42.650;23.386;2022-12-11T12:24:09;7.63;;;3.73;;
18789;SDS011;9523;42.650;23.386;2022-12-11T12:26:44;7.83;;;3.33;;
18789;SDS011;9523;42.650;23.386;2022-12-11T12:29:18;4.63;;;2.70;;
18789;SDS011;9523;42.650;23.386;2022-12-11T12:32:01;4.13;;;2.60;;
18789;SDS011;9523;42.650;23.386;2022-12-11T12:34:40;3.93;;;3.00;;
18789;SDS011;9523;42.650;23.386;2022-12-11T12:37:19;9.30;;;4.90;;
18789;SDS011;9523;42.650;23.386;2022-12-11T12:40:00;8.53;;;4.77;;
18789;SDS011;9523;42.650;23.386;2022-12-11T12:42:40;7.97;;;4.47;;
18789;SDS011;9523;42.650;23.386;2022-12-11T12:45:16;5.60;;;4.03;;
18789;SDS011;9523;42.650;23.386;2022-12-11T12:47:53;4.47;;;3.13;;
18789;SDS011;9523;42.650;23.386;2022-12-11T12:50:20;4.70;;;2.73;;
18789;SDS011;9523;42.650;23.386;2022-12-11T12:52:49;3.83;;;1.90;;
18789;SDS011;9523;42.650;23.386;2022-12-11T12:55:19;4.27;;;2.80;;
18789;SDS011;9523;42.650;23.386;2022-12-11T12:57:49;5.20;;;2.23;;
18789;SDS011;9523;42.650;23.386;2022-12-11T13:00:27;3.33;;;2.00;;
18789;SDS011;9523;42.650;23.386;2022-12-11T13:02:58;2.77;;;2.50;;
18789;SDS011;9523;42.650;23.386;2022-12-11T13:05:28;2.03;;;1.80;;
18789;SDS011;9523;42.650;23.386;2022-12-11T13:07:59;2.60;;;2.13;;
18789;SDS011;9523;42.650;23.386;2022-12-11T13:10:29;3.80;;;2.43;;
18789;SDS011;9523;42.650;23.386;2022-12-11T13:12:57;3.27;;;2.17;;
18789;SDS011;9523;42.650;23.386;2022-12-11T13:15:25;2.20;;;1.87;;
18789;SDS011;9523;42.650;23.386;2022-12-11T13:18:01;2.10;;;1.80;;
18789;SDS011;9523;42.650;23.386;2022-12-11T13:20:32;2.07;;;1.77;;
18789;SDS011;9523;42.650;23.386;2022-12-11T13:23:08;3.63;;;2.00;;
18789;SDS011;9523;42.650;23.386;2022-12-11T13:25:46;2.60;;;1.80;;
18789;SDS011;9523;42.650;23.386;2022-12-11T13:28:25;2.13;;;1.67;;
18789;SDS011;9523;42.650;23.386;2022-12-11T13:31:23;2.67;;;1.53;;
18789;SDS011;9523;42.650;23.386;2022-12-11T13:33:56;2.47;;;1.67;;
18789;SDS011;9523;42.650;23.386;2022-12-11T13:36:29;2.70;;;1.90;;
18789;SDS011;9523;42.650;23.386;2022-12-11T13:39:00;1.70;;;1.37;;
18789;SDS011;9523;42.650;23.386;2022-12-11T13:41:31;2.13;;;1.50;;
18789;SDS011;9523;42.650;23.386;2022-12-11T13:44:00;3.20;;;1.50;;
18789;SDS011;9523;42.650;23.386;2022-12-11T13:46:28;1.93;;;1.30;;
18789;SDS011;9523;42.650;23.386;2022-12-11T13:49:01;1.47;;;1.20;;
18789;SDS011;9523;42.650;23.386;2022-12-11T13:51:31;3.43;;;1.40;;
18789;SDS011;9523;42.650;23.386;2022-12-11T13:54:05;1.67;;;1.30;;
18789;SDS011;9523;42.650;23.386;2022-12-11T13:56:39;2.63;;;1.33;;
18789;SDS011;9523;42.650;23.386;2022-12-11T13:59:18;4.37;;;2.10;;
18789;SDS011;9523;42.650;23.386;2022-12-11T14:01:49;2.83;;;1.80;;
18789;SDS011;9523;42.650;23.386;2022-12-11T14:04:20;2.27;;;1.60;;
18789;SDS011;9523;42.650;23.386;2022-12-11T14:06:49;3.40;;;1.43;;
18789;SDS011;9523;42.650;23.386;2022-12-11T14:09:19;1.83;;;1.50;;
18789;SDS011;9523;42.650;23.386;2022-12-11T14:11:49;2.30;;;2.03;;
18789;SDS011;9523;42.650;23.386;2022-12-11T14:14:18;2.13;;;1.50;;
18789;SDS011;9523;42.650;23.386;2022-12-11T14:16:47;9.57;;;6.17;;
18789;SDS011;9523;42.650;23.386;2022-12-11T14:19:15;2.40;;;1.60;;
18789;SDS011;9523;42.650;23.386;2022-12-11T14:21:54;4.33;;;1.63;;
18789;SDS011;9523;42.650;23.386;2022-12-11T14:24:25;2.03;;;1.27;;
18789;SDS011;9523;42.650;23.386;2022-12-11T14:26:53;2.13;;;1.40;;
18789;SDS011;9523;42.650;23.386;2022-12-11T14:29:24;3.07;;;1.60;;
18789;SDS011;9523;42.650;23.386;2022-12-11T14:31:53;4.27;;;1.60;;
18789;SDS011;9523;42.650;23.386;2022-12-11T14:34:24;1.47;;;1.33;;
18789;SDS011;9523;42.650;23.386;2022-12-11T14:36:58;2.83;;;2.00;;
18789;SDS011;9523;42.650;23.386;2022-12-11T14:39:29;2.10;;;1.80;;
18789;SDS011;9523;42.650;23.386;2022-12-11T14:42:01;3.47;;;1.87;;
18789;SDS011;9523;42.650;23.386;2022-12-11T14:44:34;1.60;;;1.37;;
18789;SDS011;9523;42.650;23.386;2022-12-11T14:47:09;1.80;;;1.10;;
18789;SDS011;9523;42.650;23.386;2022-12-11T14:49:41;2.07;;;1.10;;
18789;SDS011;9523;42.650;23.386;2022-12-11T14:52:16;1.30;;;1.13;;
18789;SDS011;9523;42.650;23.386;2022-12-11T14:54:46;1.43;;;1.30;;
18789;SDS011;9523;42.650;23.386;2022-12-11T14:57:18;1.60;;;1.23;;
18789;SDS011;9523;42.650;23.386;2022-12-11T14:59:48;2.63;;;1.23;;
18789;SDS011;9523;42.650;23.386;2022-12-11T15:02:25;1.90;;;1.20;;
18789;SDS011;9523;42.650;23.386;2022-12-11T15:07:57;1.97;;;1.37;;
18789;SDS011;9523;42.650;23.386;2022-12-11T15:10:30;1.37;;;1.20;;
18789;SDS011;9523;42.650;23.386;2022-12-11T15:13:01;4.13;;;2.90;;